createdAt,value
2019-04-30T00:01:19.086Z,12.53
2019-04-30T00:03:59.242Z,11.80
2019-04-30T00:06:27.387Z,12.80
2019-04-30T00:08:57.700Z,13.25
2019-04-30T00:11:26.993Z,14.38
2019-04-30T00:13:58.871Z,12.73
2019-04-30T00:16:31.013Z,12.00
2019-04-30T00:19:00.503Z,13.67
2019-04-30T00:21:27.670Z,11.88
2019-04-30T00:24:00.739Z,12.37
2019-04-30T00:26:27.089Z,13.60
2019-04-30T00:28:55.858Z,12.55
2019-04-30T00:31:27.429Z,13.80
2019-04-30T00:33:59.992Z,15.30
2019-04-30T00:36:27.531Z,16.70
2019-04-30T00:38:55.638Z,14.28
2019-04-30T00:41:25.651Z,13.60
2019-04-30T00:43:55.144Z,14.15
2019-04-30T00:46:27.326Z,14.30
2019-04-30T00:48:56.776Z,13.97
2019-04-30T00:51:26.186Z,13.80
2019-04-30T00:53:55.788Z,14.18
2019-04-30T00:56:28.185Z,14.20
2019-04-30T00:58:57.787Z,14.95
2019-04-30T01:01:43.601Z,14.25
2019-04-30T01:04:24.623Z,13.18
2019-04-30T01:06:55.904Z,14.33
2019-04-30T01:09:25.666Z,13.08
2019-04-30T01:11:55.313Z,14.20
2019-04-30T01:14:28.416Z,14.20
2019-04-30T01:16:54.602Z,13.70
2019-04-30T01:19:29.869Z,14.03
2019-04-30T01:21:53.665Z,14.20
2019-04-30T01:24:23.524Z,13.40
2019-04-30T01:26:53.484Z,14.20
2019-04-30T01:29:22.467Z,13.03
2019-04-30T01:31:51.188Z,12.53
2019-04-30T01:34:20.190Z,14.13
2019-04-30T01:36:52.245Z,12.88
2019-04-30T01:39:19.652Z,12.50
2019-04-30T01:41:49.980Z,11.78
2019-04-30T01:44:19.558Z,11.57
2019-04-30T01:46:51.659Z,11.90
2019-04-30T01:49:20.285Z,13.10
2019-04-30T01:51:52.807Z,15.18
2019-04-30T01:54:24.034Z,15.13
2019-04-30T01:56:59.413Z,14.93
2019-04-30T01:59:29.867Z,16.65
2019-04-30T02:01:58.697Z,16.52
2019-04-30T02:04:28.978Z,17.67
2019-04-30T02:06:59.210Z,19.17
2019-04-30T02:09:28.645Z,17.30
2019-04-30T02:11:57.612Z,19.25
2019-04-30T02:14:28.631Z,18.20
2019-04-30T02:16:57.075Z,19.07
2019-04-30T02:19:25.659Z,19.57
2019-04-30T02:21:54.718Z,21.33
2019-04-30T02:24:23.388Z,20.82
2019-04-30T02:26:52.103Z,22.75
2019-04-30T02:29:20.768Z,22.98
2019-04-30T02:31:50.403Z,22.32
2019-04-30T02:34:30.046Z,24.55
2019-04-30T02:36:59.226Z,24.77
2019-04-30T02:39:30.211Z,25.75
2019-04-30T02:41:59.939Z,25.57
2019-04-30T02:44:30.077Z,25.08
2019-04-30T02:47:00.476Z,24.63
2019-04-30T02:49:30.484Z,26.55
2019-04-30T02:52:02.223Z,25.62
2019-04-30T02:57:00.949Z,25.77
2019-04-30T02:59:30.142Z,25.88
2019-04-30T03:01:59.830Z,27.42
2019-04-30T03:04:29.387Z,27.70
2019-04-30T03:06:59.727Z,27.58
2019-04-30T03:09:29.728Z,28.00
2019-04-30T03:12:00.284Z,29.30
2019-04-30T03:14:30.125Z,29.25
2019-04-30T03:17:09.974Z,28.30
2019-04-30T03:19:40.309Z,28.92
2019-04-30T03:22:10.761Z,29.15
2019-04-30T03:24:42.432Z,31.68
2019-04-30T03:27:09.969Z,30.68
2019-04-30T03:29:40.588Z,32.13
2019-04-30T03:32:13.878Z,31.55
2019-04-30T03:34:42.790Z,31.95
2019-04-30T03:37:11.517Z,32.40
2019-04-30T03:39:40.232Z,31.52
2019-04-30T03:42:09.930Z,33.42
2019-04-30T03:44:40.452Z,33.65
2019-04-30T03:47:10.840Z,33.83
2019-04-30T03:49:40.351Z,33.30
2019-04-30T03:52:12.693Z,34.73
2019-04-30T03:54:40.791Z,34.98
2019-04-30T03:57:10.661Z,35.88
2019-04-30T03:59:40.146Z,34.70
2019-04-30T04:02:13.397Z,36.63
2019-04-30T04:04:46.202Z,36.95
2019-04-30T04:07:20.418Z,36.33
2019-04-30T04:10:00.469Z,37.28
2019-04-30T04:12:30.383Z,35.45
2019-04-30T04:15:00.727Z,36.20
2019-04-30T04:17:31.393Z,38.75
2019-04-30T04:20:01.003Z,38.55
2019-04-30T04:22:30.758Z,40.23
2019-04-30T04:25:00.313Z,38.83
2019-04-30T04:27:30.221Z,39.65
2019-04-30T04:30:01.062Z,39.10
2019-04-30T04:32:31.131Z,38.30
2019-04-30T04:35:00.507Z,39.55
2019-04-30T04:37:30.329Z,40.23
2019-04-30T04:39:59.834Z,41.30
2019-04-30T04:42:30.024Z,40.33
2019-04-30T04:44:59.944Z,41.60
2019-04-30T04:47:30.825Z,39.85
2019-04-30T04:50:00.885Z,41.90
2019-04-30T04:52:31.552Z,40.85
2019-04-30T04:55:00.978Z,38.95
2019-04-30T04:57:30.701Z,42.48
2019-04-30T05:00:06.749Z,40.90
2019-04-30T05:02:35.111Z,41.05
2019-04-30T05:05:04.977Z,42.33
2019-04-30T05:07:34.277Z,42.53
2019-04-30T05:10:04.632Z,43.40
2019-04-30T05:12:33.790Z,44.23
2019-04-30T05:15:02.883Z,40.00
2019-04-30T05:17:32.283Z,42.53
2019-04-30T05:20:01.388Z,42.55
2019-04-30T05:22:30.538Z,44.10
2019-04-30T05:24:59.756Z,44.08
2019-04-30T05:27:30.321Z,46.73
2019-04-30T05:29:59.610Z,44.73
2019-04-30T05:32:29.318Z,46.42
2019-04-30T05:34:58.758Z,44.30
2019-04-30T05:37:28.415Z,47.00
2019-04-30T05:39:58.494Z,44.08
2019-04-30T05:42:28.682Z,47.03
2019-04-30T05:44:59.246Z,45.90
2019-04-30T05:47:29.059Z,45.23
2019-04-30T05:49:58.538Z,46.92
2019-04-30T05:52:29.535Z,47.45
2019-04-30T05:55:00.106Z,47.73
2019-04-30T05:57:29.513Z,46.28
2019-04-30T05:59:58.812Z,45.88
2019-04-30T06:02:30.724Z,45.65
2019-04-30T06:04:58.838Z,46.40
2019-04-30T06:07:29.820Z,45.75
2019-04-30T06:10:06.374Z,46.85
2019-04-30T06:12:55.010Z,46.40
2019-04-30T06:15:25.900Z,44.53
2019-04-30T06:18:00.691Z,43.58
2019-04-30T06:20:26.409Z,45.12
2019-04-30T06:23:12.508Z,42.73
2019-04-30T06:25:56.273Z,45.60
2019-04-30T06:28:13.101Z,43.23
2019-04-30T06:30:42.501Z,43.17
2019-04-30T06:33:11.890Z,41.33
2019-04-30T06:35:40.942Z,43.58
2019-04-30T06:38:10.153Z,44.40
2019-04-30T06:40:39.195Z,40.52
2019-04-30T06:43:09.272Z,41.13
2019-04-30T06:45:38.911Z,40.80
2019-04-30T06:48:08.954Z,41.73
2019-04-30T06:50:39.302Z,40.23
2019-04-30T06:53:09.320Z,39.83
2019-04-30T06:55:39.243Z,36.98
2019-04-30T06:58:15.038Z,37.93
2019-04-30T07:00:40.079Z,38.40
2019-04-30T07:03:10.056Z,39.05
2019-04-30T07:05:39.395Z,36.42
2019-04-30T07:08:36.165Z,34.73
2019-04-30T07:11:14.438Z,35.70
2019-04-30T07:13:45.922Z,34.83
2019-04-30T07:16:15.052Z,33.18
2019-04-30T07:18:44.647Z,32.73
2019-04-30T07:21:14.019Z,32.95
2019-04-30T07:23:43.109Z,30.70
2019-04-30T07:26:13.740Z,31.45
2019-04-30T07:28:49.577Z,30.57
2019-04-30T07:33:44.852Z,29.63
2019-04-30T07:36:13.967Z,27.90
2019-04-30T07:38:51.577Z,28.65
2019-04-30T07:41:14.031Z,26.02
2019-04-30T07:43:43.226Z,25.90
2019-04-30T07:46:12.808Z,25.85
2019-04-30T07:48:42.159Z,26.10
2019-04-30T07:51:11.892Z,26.07
2019-04-30T07:53:41.799Z,26.68
2019-04-30T07:56:24.290Z,25.75
2019-04-30T07:58:42.035Z,23.95
2019-04-30T08:01:11.628Z,23.98
2019-04-30T08:03:42.956Z,24.98
2019-04-30T08:08:41.283Z,23.25
2019-04-30T08:09:38.355Z,29.10
2019-04-30T08:11:23.146Z,22.98
2019-04-30T08:13:42.320Z,22.67
2019-04-30T08:16:12.023Z,23.70
2019-04-30T08:18:41.834Z,23.25
2019-04-30T08:21:10.941Z,23.52
2019-04-30T08:23:40.547Z,23.38
2019-04-30T08:26:10.005Z,22.62
2019-04-30T08:28:39.574Z,22.58
2019-04-30T08:31:09.112Z,22.05
2019-04-30T08:33:40.219Z,22.75
2019-04-30T08:36:09.685Z,22.22
2019-04-30T08:38:39.524Z,22.98
2019-04-30T08:41:09.375Z,20.95
2019-04-30T08:43:39.412Z,21.30
2019-04-30T08:46:09.417Z,22.32
2019-04-30T08:48:47.834Z,21.30
2019-04-30T08:51:13.364Z,21.25
2019-04-30T08:53:41.429Z,20.40
2019-04-30T08:56:10.654Z,20.08
2019-04-30T08:58:39.758Z,19.10
2019-04-30T09:01:09.972Z,20.62
2019-04-30T09:03:46.039Z,19.15
2019-04-30T09:06:17.167Z,19.55
2019-04-30T09:08:46.319Z,20.92
2019-04-30T09:11:24.680Z,21.93
2019-04-30T09:13:48.587Z,27.82
2019-04-30T09:16:19.439Z,22.95
2019-04-30T09:21:19.065Z,24.05
2019-04-30T09:23:52.380Z,25.90
2019-04-30T09:26:19.913Z,23.50
2019-04-30T09:28:49.663Z,20.72
2019-04-30T09:31:19.847Z,18.30
2019-04-30T09:33:49.351Z,19.52
2019-04-30T09:36:20.579Z,18.87
2019-04-30T09:38:49.548Z,17.90
2019-04-30T09:41:19.335Z,18.98
2019-04-30T09:43:49.423Z,18.50
2019-04-30T09:46:26.624Z,17.20
2019-04-30T09:48:50.804Z,16.77
2019-04-30T09:51:23.798Z,18.90
2019-04-30T09:53:58.684Z,20.88
2019-04-30T09:56:22.875Z,19.52
2019-04-30T09:58:52.257Z,18.27
2019-04-30T10:01:22.116Z,17.85
2019-04-30T10:03:51.928Z,17.65
2019-04-30T10:06:37.013Z,19.30
2019-04-30T10:08:56.906Z,18.98
2019-04-30T10:11:30.656Z,19.70
2019-04-30T10:14:00.260Z,19.37
2019-04-30T10:16:34.056Z,18.90
2019-04-30T10:19:03.234Z,21.20
2019-04-30T10:21:32.700Z,18.85
2019-04-30T10:24:12.503Z,20.25
2019-04-30T10:26:32.919Z,21.10
2019-04-30T10:29:04.030Z,19.67
2019-04-30T10:31:33.698Z,19.02
2019-04-30T10:34:03.652Z,20.23
2019-04-30T10:36:33.251Z,18.55
2019-04-30T10:39:02.761Z,18.45
2019-04-30T10:41:32.244Z,17.52
2019-04-30T10:44:01.606Z,19.42
2019-04-30T10:46:31.035Z,19.57
2019-04-30T10:49:00.715Z,19.55
2019-04-30T10:51:30.342Z,22.65
2019-04-30T10:53:59.713Z,21.50
2019-04-30T10:56:29.226Z,19.75
2019-04-30T10:58:58.669Z,19.45
2019-04-30T11:01:29.206Z,17.67
2019-04-30T11:03:58.727Z,17.62
2019-04-30T11:06:28.812Z,17.60
2019-04-30T11:08:58.229Z,18.40
2019-04-30T11:11:28.276Z,18.50
2019-04-30T11:13:58.497Z,18.05
2019-04-30T11:16:29.659Z,16.62
2019-04-30T11:18:59.236Z,16.12
2019-04-30T11:21:29.596Z,17.80
2019-04-30T11:23:59.608Z,17.90
2019-04-30T11:26:31.625Z,18.27
2019-04-30T11:29:00.601Z,17.12
2019-04-30T11:31:32.253Z,18.25
2019-04-30T11:34:03.296Z,18.40
2019-04-30T11:36:32.753Z,17.15
2019-04-30T11:39:02.172Z,16.50
2019-04-30T11:41:33.270Z,16.87
2019-04-30T11:44:02.762Z,18.35
2019-04-30T11:46:59.668Z,17.20
2019-04-30T11:49:29.219Z,17.45
2019-04-30T11:51:58.806Z,18.55
2019-04-30T11:54:29.843Z,17.27
2019-04-30T11:59:29.738Z,19.48
2019-04-30T12:04:29.840Z,17.30
2019-04-30T12:07:01.111Z,17.00
2019-04-30T12:09:41.166Z,20.05
2019-04-30T12:12:10.960Z,18.50
2019-04-30T12:14:40.625Z,16.77
2019-04-30T12:17:10.021Z,16.45
2019-04-30T12:19:39.311Z,18.02
2019-04-30T12:22:09.211Z,31.50
2019-04-30T12:24:38.814Z,21.23
2019-04-30T12:27:08.448Z,18.27
2019-04-30T12:29:39.747Z,20.02
2019-04-30T12:32:08.972Z,20.35
2019-04-30T12:34:38.920Z,16.82
2019-04-30T12:37:10.597Z,16.87
2019-04-30T12:39:40.255Z,17.17
2019-04-30T12:42:09.665Z,16.82
2019-04-30T12:44:40.081Z,16.87
2019-04-30T12:47:09.926Z,16.10
2019-04-30T12:50:00.868Z,17.75
2019-04-30T12:52:30.137Z,23.12
2019-04-30T12:55:00.865Z,20.37
2019-04-30T12:57:32.060Z,19.05
2019-04-30T13:00:01.718Z,15.60
2019-04-30T13:02:31.314Z,19.37
2019-04-30T13:05:00.663Z,24.80
2019-04-30T13:07:30.994Z,18.27
2019-04-30T13:12:31.256Z,17.70
2019-04-30T13:15:01.379Z,15.85
2019-04-30T13:17:30.786Z,15.88
2019-04-30T13:20:00.838Z,15.10
2019-04-30T13:22:30.335Z,13.80
2019-04-30T13:24:59.782Z,14.35
2019-04-30T13:27:31.442Z,13.85
2019-04-30T13:30:02.296Z,16.27
2019-04-30T13:32:33.287Z,16.32
2019-04-30T13:35:02.452Z,16.42
2019-04-30T13:37:33.697Z,15.58
2019-04-30T13:40:20.876Z,15.75
2019-04-30T13:42:51.830Z,13.80
2019-04-30T13:45:21.292Z,14.25
2019-04-30T13:47:51.002Z,13.30
2019-04-30T13:50:21.542Z,14.93
2019-04-30T13:52:50.865Z,14.93
2019-04-30T13:55:20.428Z,14.47
2019-04-30T13:57:49.848Z,13.80
2019-04-30T14:00:21.021Z,12.93
2019-04-30T14:03:09.205Z,13.43
2019-04-30T14:05:38.664Z,12.60
2019-04-30T14:08:20.020Z,12.33
2019-04-30T14:10:49.544Z,11.70
2019-04-30T14:13:19.151Z,12.70
2019-04-30T14:15:48.978Z,11.73
2019-04-30T14:18:28.535Z,11.18
2019-04-30T14:20:50.419Z,11.65
2019-04-30T14:23:20.014Z,12.18
2019-04-30T14:25:56.233Z,12.82
2019-04-30T14:28:20.876Z,12.55
2019-04-30T14:30:50.300Z,12.33
2019-04-30T14:33:25.981Z,11.35
2019-04-30T14:35:50.868Z,15.53
2019-04-30T14:38:20.393Z,12.70
2019-04-30T14:40:50.808Z,12.18
2019-04-30T14:43:25.547Z,13.83
2019-04-30T14:46:01.655Z,12.60
2019-04-30T14:48:32.622Z,13.48
2019-04-30T14:51:03.091Z,13.58
2019-04-30T14:53:34.269Z,13.28
2019-04-30T14:56:09.515Z,13.60
2019-04-30T14:58:49.986Z,13.13
2019-04-30T15:01:20.990Z,12.58
2019-04-30T15:03:50.395Z,13.60
2019-04-30T15:06:19.599Z,13.03
2019-04-30T15:08:49.592Z,12.93
2019-04-30T15:11:19.148Z,15.48
2019-04-30T15:13:49.424Z,13.32
2019-04-30T15:16:19.052Z,13.85
2019-04-30T15:18:48.774Z,14.63
2019-04-30T15:21:18.321Z,12.73
2019-04-30T15:23:58.589Z,12.03
2019-04-30T15:26:25.164Z,10.55
2019-04-30T15:28:53.724Z,13.43
2019-04-30T15:31:22.963Z,13.35
2019-04-30T15:34:02.501Z,14.85
2019-04-30T15:36:24.691Z,12.98
2019-04-30T15:39:01.513Z,12.88
2019-04-30T15:41:31.592Z,12.75
2019-04-30T15:44:00.999Z,12.07
2019-04-30T15:46:30.359Z,14.55
2019-04-30T15:48:59.622Z,13.80
2019-04-30T15:51:29.490Z,13.68
2019-04-30T15:53:58.977Z,12.75
2019-04-30T15:56:36.758Z,13.22
2019-04-30T15:59:19.088Z,14.30
2019-04-30T16:01:56.280Z,12.95
2019-04-30T16:04:38.359Z,13.93
2019-04-30T16:07:08.502Z,14.05
2019-04-30T16:09:54.445Z,18.20
2019-04-30T16:12:25.361Z,13.30
2019-04-30T16:14:55.043Z,14.78
2019-04-30T16:17:25.725Z,15.93
2019-04-30T16:19:55.298Z,16.67
2019-04-30T16:22:25.633Z,14.00
2019-04-30T16:24:55.097Z,13.90
2019-04-30T16:27:24.481Z,14.25
2019-04-30T16:29:54.671Z,13.50
2019-04-30T16:32:24.814Z,13.10
2019-04-30T16:34:55.503Z,13.20
2019-04-30T16:37:24.957Z,12.50
2019-04-30T16:39:54.444Z,12.18
2019-04-30T16:42:23.706Z,11.60
2019-04-30T16:44:53.022Z,12.80
2019-04-30T16:47:22.351Z,12.80
2019-04-30T16:49:51.785Z,13.10
2019-04-30T16:52:20.954Z,13.53
2019-04-30T16:54:50.598Z,12.65
2019-04-30T16:57:19.931Z,12.75
2019-04-30T16:59:49.988Z,13.30
2019-04-30T17:02:23.912Z,13.90
2019-04-30T17:04:54.866Z,14.60
2019-04-30T17:07:35.372Z,14.50
2019-04-30T17:10:09.034Z,14.03
2019-04-30T17:12:54.955Z,13.70
2019-04-30T17:15:26.318Z,12.65
2019-04-30T17:17:56.041Z,13.20
2019-04-30T17:20:25.405Z,12.70
2019-04-30T17:22:55.104Z,14.68
2019-04-30T17:25:24.402Z,13.78
2019-04-30T17:27:53.925Z,13.48
2019-04-30T17:30:23.659Z,13.25
2019-04-30T17:32:53.101Z,12.90
2019-04-30T17:35:22.704Z,12.60
2019-04-30T17:37:51.836Z,14.15
2019-04-30T17:40:21.861Z,11.78
2019-04-30T17:42:51.317Z,11.28
2019-04-30T17:45:21.147Z,11.48
2019-04-30T17:47:50.211Z,11.20
2019-04-30T17:50:22.397Z,10.10
2019-04-30T17:52:51.970Z,12.70
2019-04-30T17:55:21.355Z,13.75
2019-04-30T17:57:50.983Z,11.05
2019-04-30T18:00:22.392Z,10.38
2019-04-30T18:02:51.962Z,9.90
2019-04-30T18:05:21.381Z,10.23
2019-04-30T18:07:50.856Z,9.53
2019-04-30T18:10:21.293Z,10.40
2019-04-30T18:12:50.596Z,11.22
2019-04-30T18:15:21.996Z,10.68
2019-04-30T18:17:56.613Z,10.50
2019-04-30T18:20:31.072Z,10.05
2019-04-30T18:23:18.303Z,10.72
2019-04-30T18:25:49.554Z,9.98
2019-04-30T18:28:19.291Z,10.40
2019-04-30T18:30:49.170Z,10.90
2019-04-30T18:33:18.403Z,10.50
2019-04-30T18:35:48.661Z,10.55
2019-04-30T18:38:18.090Z,11.38
2019-04-30T18:40:49.445Z,11.05
2019-04-30T18:43:20.404Z,10.93
2019-04-30T18:45:49.501Z,10.70
2019-04-30T18:48:19.508Z,12.23
2019-04-30T18:50:49.255Z,10.75
2019-04-30T18:53:20.203Z,9.90
2019-04-30T18:55:50.773Z,10.38
2019-04-30T18:58:20.168Z,11.83
2019-04-30T19:00:49.642Z,10.63
2019-04-30T19:03:21.570Z,10.60
2019-04-30T19:05:51.531Z,10.45
2019-04-30T19:08:22.486Z,11.10
2019-04-30T19:10:54.203Z,11.40
2019-04-30T19:13:33.780Z,10.23
2019-04-30T19:16:19.778Z,11.08
2019-04-30T19:18:43.390Z,11.83
2019-04-30T19:21:12.664Z,11.03
2019-04-30T19:23:41.375Z,11.25
2019-04-30T19:26:10.187Z,11.38
2019-04-30T19:28:39.066Z,11.18
2019-04-30T19:31:09.189Z,11.08
2019-04-30T19:33:38.903Z,10.80
2019-04-30T19:36:09.643Z,10.88
2019-04-30T19:38:38.210Z,11.12
2019-04-30T19:41:09.087Z,11.25
2019-04-30T19:43:39.100Z,11.97
2019-04-30T19:46:09.191Z,11.93
2019-04-30T19:48:38.327Z,12.28
2019-04-30T19:51:08.874Z,12.25
2019-04-30T19:53:39.505Z,11.63
2019-04-30T19:56:08.417Z,11.65
2019-04-30T19:58:48.740Z,11.80
2019-04-30T20:01:09.390Z,11.40
2019-04-30T20:03:38.049Z,10.82
2019-04-30T20:06:08.913Z,12.18
2019-04-30T20:08:38.717Z,11.85
2019-04-30T20:11:07.473Z,12.43
2019-04-30T20:13:37.284Z,12.50
2019-04-30T20:16:06.465Z,12.75
2019-04-30T20:18:35.154Z,12.88
2019-04-30T20:21:06.054Z,11.55
2019-04-30T20:23:34.867Z,13.32
2019-04-30T20:26:03.732Z,13.48
2019-04-30T20:28:39.152Z,13.03
2019-04-30T20:31:02.795Z,12.58
2019-04-30T20:33:31.567Z,13.48
2019-04-30T20:36:00.283Z,12.78
2019-04-30T20:38:33.351Z,12.65
2019-04-30T20:41:03.348Z,13.40
2019-04-30T20:43:32.260Z,14.07
2019-04-30T20:46:01.071Z,14.10
2019-04-30T20:48:30.015Z,13.22
2019-04-30T20:51:01.090Z,13.53
2019-04-30T20:53:29.381Z,13.88
2019-04-30T20:55:59.318Z,13.43
2019-04-30T20:58:28.354Z,13.65
2019-04-30T21:01:04.020Z,14.78
2019-04-30T21:03:29.418Z,14.23
2019-04-30T21:06:00.392Z,14.03
2019-04-30T21:08:28.856Z,15.63
2019-04-30T21:10:59.351Z,13.80
2019-04-30T21:13:29.498Z,14.78
2019-04-30T21:15:59.477Z,13.93
2019-04-30T21:18:30.497Z,13.60
2019-04-30T21:20:59.595Z,14.05
2019-04-30T21:23:29.297Z,14.75
2019-04-30T21:25:58.907Z,13.55
2019-04-30T21:28:29.549Z,14.53
2019-04-30T21:30:59.863Z,14.50
2019-04-30T21:33:30.163Z,14.75
2019-04-30T21:36:06.195Z,15.95
2019-04-30T21:38:34.953Z,16.27
2019-04-30T21:41:03.676Z,15.78
2019-04-30T21:43:32.479Z,15.48
2019-04-30T21:46:01.342Z,16.93
2019-04-30T21:48:30.103Z,16.95
2019-04-30T21:50:59.395Z,16.90
2019-04-30T21:53:29.458Z,16.90
2019-04-30T21:55:58.235Z,17.48
2019-04-30T21:58:29.063Z,17.05
2019-04-30T22:01:07.622Z,19.23
2019-04-30T22:03:36.524Z,19.00
2019-04-30T22:06:05.308Z,20.52
2019-04-30T22:08:34.046Z,20.00
2019-04-30T22:11:02.693Z,22.50
2019-04-30T22:13:31.408Z,22.85
2019-04-30T22:16:00.321Z,23.38
2019-04-30T22:18:29.039Z,23.45
2019-04-30T22:20:57.905Z,25.25
2019-04-30T22:23:26.576Z,25.40
2019-04-30T22:25:55.344Z,25.37
2019-04-30T22:28:24.028Z,26.65
2019-04-30T22:30:52.770Z,26.05
2019-04-30T22:33:21.572Z,27.73
2019-04-30T22:35:51.994Z,26.93
2019-04-30T22:38:24.854Z,27.25
2019-04-30T22:40:53.787Z,27.32
2019-04-30T22:43:22.917Z,28.55
2019-04-30T22:45:53.259Z,28.10
2019-04-30T22:48:22.311Z,29.45
2019-04-30T22:50:51.529Z,29.12
2019-04-30T22:53:20.317Z,29.48
2019-04-30T22:55:48.908Z,29.05
2019-04-30T22:58:17.768Z,30.45
2019-04-30T23:00:47.590Z,31.45
2019-04-30T23:03:18.114Z,30.90
2019-04-30T23:05:46.911Z,30.15
2019-04-30T23:08:15.469Z,32.23
2019-04-30T23:10:44.423Z,32.53
2019-04-30T23:13:13.268Z,30.50
2019-04-30T23:15:42.050Z,30.62
2019-04-30T23:18:10.768Z,31.85
2019-04-30T23:20:39.440Z,32.03
2019-04-30T23:23:08.580Z,32.25
2019-04-30T23:25:37.292Z,32.10
2019-04-30T23:28:06.080Z,32.60
2019-04-30T23:30:34.946Z,32.42
2019-04-30T23:33:03.541Z,32.35
2019-04-30T23:35:32.252Z,31.33
2019-04-30T23:38:00.998Z,36.48
2019-04-30T23:40:47.521Z,34.30
2019-04-30T23:43:16.373Z,33.83
2019-04-30T23:45:45.367Z,32.65
2019-04-30T23:48:14.660Z,34.45
2019-04-30T23:50:43.772Z,34.20
2019-04-30T23:53:12.695Z,35.90
2019-04-30T23:55:41.429Z,33.55
2019-04-30T23:58:10.302Z,33.98
